sensor_id;sensor_type;location;lat;lon;timestamp;temperature;humidity
25504;DHT22;13410;52.114;5.718;2022-11-20T00:02:19;2.00;99.90
25504;DHT22;13410;52.114;5.718;2022-11-20T00:04:44;2.10;99.90
25504;DHT22;13410;52.114;5.718;2022-11-20T00:07:10;2.00;99.90
25504;DHT22;13410;52.114;5.718;2022-11-20T00:09:35;1.90;99.90
25504;DHT22;13410;52.114;5.718;2022-11-20T00:12:01;1.90;99.90
25504;DHT22;13410;52.114;5.718;2022-11-20T00:14:26;1.80;99.90
25504;DHT22;13410;52.114;5.718;2022-11-20T00:16:52;1.80;99.90
25504;DHT22;13410;52.114;5.718;2022-11-20T00:19:18;1.70;99.90
25504;DHT22;13410;52.114;5.718;2022-11-20T00:21:44;1.70;99.90
25504;DHT22;13410;52.114;5.718;2022-11-20T00:24:10;1.50;99.90
25504;DHT22;13410;52.114;5.718;2022-11-20T00:26:36;1.50;99.90
25504;DHT22;13410;52.114;5.718;2022-11-20T00:29:02;1.50;99.90
25504;DHT22;13410;52.114;5.718;2022-11-20T00:31:29;1.60;99.90
25504;DHT22;13410;52.114;5.718;2022-11-20T00:33:55;1.70;99.90
25504;DHT22;13410;52.114;5.718;2022-11-20T00:36:22;1.60;99.90
25504;DHT22;13410;52.114;5.718;2022-11-20T00:38:53;1.60;99.90
25504;DHT22;13410;52.114;5.718;2022-11-20T00:41:19;1.50;99.90
25504;DHT22;13410;52.114;5.718;2022-11-20T00:43:45;1.40;99.90
25504;DHT22;13410;52.114;5.718;2022-11-20T00:46:14;1.50;99.90
25504;DHT22;13410;52.114;5.718;2022-11-20T00:48:41;1.60;99.90
25504;DHT22;13410;52.114;5.718;2022-11-20T00:51:07;1.60;99.90
25504;DHT22;13410;52.114;5.718;2022-11-20T00:53:33;1.60;99.90
25504;DHT22;13410;52.114;5.718;2022-11-20T00:56:00;1.60;99.90
25504;DHT22;13410;52.114;5.718;2022-11-20T00:58:33;1.50;99.90
25504;DHT22;13410;52.114;5.718;2022-11-20T01:01:05;1.50;99.90
25504;DHT22;13410;52.114;5.718;2022-11-20T01:03:36;1.50;99.90
25504;DHT22;13410;52.114;5.718;2022-11-20T01:06:04;1.50;99.90
25504;DHT22;13410;52.114;5.718;2022-11-20T01:08:34;1.60;99.90
25504;DHT22;13410;52.114;5.718;2022-11-20T01:11:08;1.70;99.90
25504;DHT22;13410;52.114;5.718;2022-11-20T01:13:35;1.60;99.90
25504;DHT22;13410;52.114;5.718;2022-11-20T01:16:11;1.50;99.90
25504;DHT22;13410;52.114;5.718;2022-11-20T01:18:39;1.50;99.90
25504;DHT22;13410;52.114;5.718;2022-11-20T01:21:07;1.50;99.90
25504;DHT22;13410;52.114;5.718;2022-11-20T01:23:38;1.40;99.90
25504;DHT22;13410;52.114;5.718;2022-11-20T01:26:06;1.20;99.90
25504;DHT22;13410;52.114;5.718;2022-11-20T01:28:33;1.10;99.90
25504;DHT22;13410;52.114;5.718;2022-11-20T01:30:59;1.00;99.90
25504;DHT22;13410;52.114;5.718;2022-11-20T01:33:25;1.10;99.90
25504;DHT22;13410;52.114;5.718;2022-11-20T01:35:52;1.10;99.90
25504;DHT22;13410;52.114;5.718;2022-11-20T01:38:18;1.00;99.90
25504;DHT22;13410;52.114;5.718;2022-11-20T01:40:53;1.00;99.90
25504;DHT22;13410;52.114;5.718;2022-11-20T01:43:19;1.20;99.90
25504;DHT22;13410;52.114;5.718;2022-11-20T01:48:25;1.30;99.90
25504;DHT22;13410;52.114;5.718;2022-11-20T01:50:52;1.20;99.90
25504;DHT22;13410;52.114;5.718;2022-11-20T01:53:21;1.30;99.90
25504;DHT22;13410;52.114;5.718;2022-11-20T01:55:53;1.30;99.90
25504;DHT22;13410;52.114;5.718;2022-11-20T01:58:29;1.30;99.90
25504;DHT22;13410;52.114;5.718;2022-11-20T02:00:55;1.30;99.90
25504;DHT22;13410;52.114;5.718;2022-11-20T02:03:21;1.30;99.90
25504;DHT22;13410;52.114;5.718;2022-11-20T02:08:32;1.30;99.90
25504;DHT22;13410;52.114;5.718;2022-11-20T02:10:58;1.20;99.90
25504;DHT22;13410;52.114;5.718;2022-11-20T02:13:23;1.30;99.90
25504;DHT22;13410;52.114;5.718;2022-11-20T02:16:18;1.20;99.90
25504;DHT22;13410;52.114;5.718;2022-11-20T02:18:45;1.20;99.90
25504;DHT22;13410;52.114;5.718;2022-11-20T02:24:14;1.20;99.90
25504;DHT22;13410;52.114;5.718;2022-11-20T02:29:08;1.10;99.90
25504;DHT22;13410;52.114;5.718;2022-11-20T02:31:36;1.10;99.90
25504;DHT22;13410;52.114;5.718;2022-11-20T02:34:02;1.10;99.90
25504;DHT22;13410;52.114;5.718;2022-11-20T02:36:29;1.20;99.90
25504;DHT22;13410;52.114;5.718;2022-11-20T02:38:57;1.10;99.90
25504;DHT22;13410;52.114;5.718;2022-11-20T02:41:34;1.10;99.90
25504;DHT22;13410;52.114;5.718;2022-11-20T02:44:00;1.10;99.90
25504;DHT22;13410;52.114;5.718;2022-11-20T02:46:26;1.10;99.90
25504;DHT22;13410;52.114;5.718;2022-11-20T02:48:51;1.00;99.90
25504;DHT22;13410;52.114;5.718;2022-11-20T02:51:17;0.90;99.90
25504;DHT22;13410;52.114;5.718;2022-11-20T02:53:42;0.90;99.90
25504;DHT22;13410;52.114;5.718;2022-11-20T02:56:08;1.00;99.90
25504;DHT22;13410;52.114;5.718;2022-11-20T02:58:33;1.10;99.90
25504;DHT22;13410;52.114;5.718;2022-11-20T03:00:59;1.00;99.90
25504;DHT22;13410;52.114;5.718;2022-11-20T03:03:24;1.00;99.90
25504;DHT22;13410;52.114;5.718;2022-11-20T03:05:50;1.00;99.90
25504;DHT22;13410;52.114;5.718;2022-11-20T03:08:16;0.90;99.90
25504;DHT22;13410;52.114;5.718;2022-11-20T03:10:41;0.90;99.90
25504;DHT22;13410;52.114;5.718;2022-11-20T03:13:07;0.70;99.90
25504;DHT22;13410;52.114;5.718;2022-11-20T03:15:32;0.70;99.90
25504;DHT22;13410;52.114;5.718;2022-11-20T03:17:58;0.60;99.90
25504;DHT22;13410;52.114;5.718;2022-11-20T03:20:23;0.30;99.90
25504;DHT22;13410;52.114;5.718;2022-11-20T03:22:49;0.40;99.90
25504;DHT22;13410;52.114;5.718;2022-11-20T03:25:15;0.40;99.90
25504;DHT22;13410;52.114;5.718;2022-11-20T03:27:40;0.30;99.90
25504;DHT22;13410;52.114;5.718;2022-11-20T03:30:06;0.40;99.90
25504;DHT22;13410;52.114;5.718;2022-11-20T03:32:32;0.40;99.90
25504;DHT22;13410;52.114;5.718;2022-11-20T03:34:58;0.50;99.90
25504;DHT22;13410;52.114;5.718;2022-11-20T03:37:23;0.60;99.90
25504;DHT22;13410;52.114;5.718;2022-11-20T03:39:49;0.50;99.90
25504;DHT22;13410;52.114;5.718;2022-11-20T03:42:15;0.50;99.90
25504;DHT22;13410;52.114;5.718;2022-11-20T03:44:59;0.60;99.90
25504;DHT22;13410;52.114;5.718;2022-11-20T03:47:24;0.60;99.90
25504;DHT22;13410;52.114;5.718;2022-11-20T03:49:50;0.60;99.90
25504;DHT22;13410;52.114;5.718;2022-11-20T03:52:15;0.50;99.90
25504;DHT22;13410;52.114;5.718;2022-11-20T03:54:41;0.50;99.90
25504;DHT22;13410;52.114;5.718;2022-11-20T03:57:07;0.50;99.90
25504;DHT22;13410;52.114;5.718;2022-11-20T03:59:33;0.60;99.90
25504;DHT22;13410;52.114;5.718;2022-11-20T04:01:58;0.60;99.90
25504;DHT22;13410;52.114;5.718;2022-11-20T04:04:24;0.70;99.90
25504;DHT22;13410;52.114;5.718;2022-11-20T04:06:49;0.60;99.90
25504;DHT22;13410;52.114;5.718;2022-11-20T04:09:15;0.50;99.90
25504;DHT22;13410;52.114;5.718;2022-11-20T04:11:41;0.40;99.90
25504;DHT22;13410;52.114;5.718;2022-11-20T04:14:15;0.20;99.90
25504;DHT22;13410;52.114;5.718;2022-11-20T04:16:41;0.20;99.90
25504;DHT22;13410;52.114;5.718;2022-11-20T04:19:11;0.10;99.90
25504;DHT22;13410;52.114;5.718;2022-11-20T04:21:37;0.00;99.90
25504;DHT22;13410;52.114;5.718;2022-11-20T04:24:03;0.10;99.90
25504;DHT22;13410;52.114;5.718;2022-11-20T04:26:29;0.30;99.90
25504;DHT22;13410;52.114;5.718;2022-11-20T04:28:56;0.40;99.90
25504;DHT22;13410;52.114;5.718;2022-11-20T04:31:27;0.50;99.90
25504;DHT22;13410;52.114;5.718;2022-11-20T04:33:53;0.40;99.90
25504;DHT22;13410;52.114;5.718;2022-11-20T04:36:23;0.30;99.90
25504;DHT22;13410;52.114;5.718;2022-11-20T04:38:57;0.40;99.90
25504;DHT22;13410;52.114;5.718;2022-11-20T04:41:25;0.30;99.90
25504;DHT22;13410;52.114;5.718;2022-11-20T04:43:53;0.40;99.90
25504;DHT22;13410;52.114;5.718;2022-11-20T04:46:24;0.40;99.90
25504;DHT22;13410;52.114;5.718;2022-11-20T04:48:50;0.60;99.90
25504;DHT22;13410;52.114;5.718;2022-11-20T04:51:15;0.40;99.90
25504;DHT22;13410;52.114;5.718;2022-11-20T04:53:41;0.20;99.90
25504;DHT22;13410;52.114;5.718;2022-11-20T04:56:09;0.00;99.90
25504;DHT22;13410;52.114;5.718;2022-11-20T04:58:35;0.00;99.90
25504;DHT22;13410;52.114;5.718;2022-11-20T05:01:10;0.10;99.90
25504;DHT22;13410;52.114;5.718;2022-11-20T05:03:36;0.10;99.90
25504;DHT22;13410;52.114;5.718;2022-11-20T05:06:04;0.20;99.90
25504;DHT22;13410;52.114;5.718;2022-11-20T05:08:31;0.10;99.90
25504;DHT22;13410;52.114;5.718;2022-11-20T05:11:23;0.10;99.90
25504;DHT22;13410;52.114;5.718;2022-11-20T05:13:50;0.10;99.90
25504;DHT22;13410;52.114;5.718;2022-11-20T05:16:22;-0.10;99.90
25504;DHT22;13410;52.114;5.718;2022-11-20T05:18:49;0.00;99.90
25504;DHT22;13410;52.114;5.718;2022-11-20T05:21:15;0.00;99.90
25504;DHT22;13410;52.114;5.718;2022-11-20T05:23:42;0.00;99.90
25504;DHT22;13410;52.114;5.718;2022-11-20T05:26:11;-0.20;99.90
25504;DHT22;13410;52.114;5.718;2022-11-20T05:28:37;-0.20;99.90
25504;DHT22;13410;52.114;5.718;2022-11-20T05:31:05;-0.20;99.90
25504;DHT22;13410;52.114;5.718;2022-11-20T05:33:31;-0.10;99.90
25504;DHT22;13410;52.114;5.718;2022-11-20T05:36:01;-0.10;99.90
25504;DHT22;13410;52.114;5.718;2022-11-20T05:38:27;-0.10;99.90
25504;DHT22;13410;52.114;5.718;2022-11-20T05:40:52;-0.20;99.90
25504;DHT22;13410;52.114;5.718;2022-11-20T05:43:18;-0.10;99.90
25504;DHT22;13410;52.114;5.718;2022-11-20T05:45:52;0.00;99.90
25504;DHT22;13410;52.114;5.718;2022-11-20T05:48:18;-0.10;99.90
25504;DHT22;13410;52.114;5.718;2022-11-20T05:50:43;-0.10;99.90
25504;DHT22;13410;52.114;5.718;2022-11-20T05:53:09;-0.10;99.90
25504;DHT22;13410;52.114;5.718;2022-11-20T05:55:34;-0.10;99.90
25504;DHT22;13410;52.114;5.718;2022-11-20T05:58:00;-0.10;99.90
25504;DHT22;13410;52.114;5.718;2022-11-20T06:00:26;-0.10;99.90
25504;DHT22;13410;52.114;5.718;2022-11-20T06:02:51;-0.30;99.90
25504;DHT22;13410;52.114;5.718;2022-11-20T06:05:18;-0.40;99.90
25504;DHT22;13410;52.114;5.718;2022-11-20T06:07:44;-0.40;99.90
25504;DHT22;13410;52.114;5.718;2022-11-20T06:10:10;-0.60;99.90
25504;DHT22;13410;52.114;5.718;2022-11-20T06:12:39;-0.50;99.90
25504;DHT22;13410;52.114;5.718;2022-11-20T06:15:06;-0.40;99.90
25504;DHT22;13410;52.114;5.718;2022-11-20T06:17:31;-0.20;99.90
25504;DHT22;13410;52.114;5.718;2022-11-20T06:19:57;-0.30;99.90
25504;DHT22;13410;52.114;5.718;2022-11-20T06:22:23;-0.30;99.90
25504;DHT22;13410;52.114;5.718;2022-11-20T06:24:48;-0.30;99.90
25504;DHT22;13410;52.114;5.718;2022-11-20T06:27:14;-0.40;99.90
25504;DHT22;13410;52.114;5.718;2022-11-20T06:29:39;-0.50;99.90
25504;DHT22;13410;52.114;5.718;2022-11-20T06:32:05;-0.40;99.90
25504;DHT22;13410;52.114;5.718;2022-11-20T06:34:32;-0.30;99.90
25504;DHT22;13410;52.114;5.718;2022-11-20T06:36:58;-0.40;99.90
25504;DHT22;13410;52.114;5.718;2022-11-20T06:39:23;-0.40;99.90
25504;DHT22;13410;52.114;5.718;2022-11-20T06:41:49;-0.40;99.90
25504;DHT22;13410;52.114;5.718;2022-11-20T06:44:14;-0.60;99.90
25504;DHT22;13410;52.114;5.718;2022-11-20T06:46:40;-0.60;99.90
25504;DHT22;13410;52.114;5.718;2022-11-20T06:49:06;-0.50;99.90
25504;DHT22;13410;52.114;5.718;2022-11-20T06:51:32;-0.50;99.90
25504;DHT22;13410;52.114;5.718;2022-11-20T06:53:57;-0.30;99.90
25504;DHT22;13410;52.114;5.718;2022-11-20T06:56:23;-0.20;99.90
25504;DHT22;13410;52.114;5.718;2022-11-20T06:58:48;-0.20;99.90
25504;DHT22;13410;52.114;5.718;2022-11-20T07:01:14;-0.20;99.90
25504;DHT22;13410;52.114;5.718;2022-11-20T07:03:41;-0.30;99.90
25504;DHT22;13410;52.114;5.718;2022-11-20T07:06:07;-0.30;99.90
25504;DHT22;13410;52.114;5.718;2022-11-20T07:08:33;-0.40;99.90
25504;DHT22;13410;52.114;5.718;2022-11-20T07:11:02;-0.50;99.90
25504;DHT22;13410;52.114;5.718;2022-11-20T07:13:28;-0.50;99.90
25504;DHT22;13410;52.114;5.718;2022-11-20T07:15:54;-0.70;99.90
25504;DHT22;13410;52.114;5.718;2022-11-20T07:18:20;-0.80;99.90
25504;DHT22;13410;52.114;5.718;2022-11-20T07:20:46;-0.70;99.90
25504;DHT22;13410;52.114;5.718;2022-11-20T07:23:11;-0.50;99.90
25504;DHT22;13410;52.114;5.718;2022-11-20T07:25:37;-0.40;99.90
25504;DHT22;13410;52.114;5.718;2022-11-20T07:28:03;-0.40;99.90
25504;DHT22;13410;52.114;5.718;2022-11-20T07:30:29;-0.40;99.90
25504;DHT22;13410;52.114;5.718;2022-11-20T07:32:56;-0.40;99.90
25504;DHT22;13410;52.114;5.718;2022-11-20T07:35:23;-0.50;99.90
25504;DHT22;13410;52.114;5.718;2022-11-20T07:37:49;-0.40;99.90
25504;DHT22;13410;52.114;5.718;2022-11-20T07:40:15;-0.50;99.90
25504;DHT22;13410;52.114;5.718;2022-11-20T07:42:52;-0.40;99.90
25504;DHT22;13410;52.114;5.718;2022-11-20T07:45:19;-0.30;99.90
25504;DHT22;13410;52.114;5.718;2022-11-20T07:47:45;-0.40;99.90
25504;DHT22;13410;52.114;5.718;2022-11-20T07:50:11;-0.50;99.90
25504;DHT22;13410;52.114;5.718;2022-11-20T07:52:38;-0.50;99.90
25504;DHT22;13410;52.114;5.718;2022-11-20T07:55:04;-0.20;99.90
25504;DHT22;13410;52.114;5.718;2022-11-20T07:57:30;-0.20;99.90
25504;DHT22;13410;52.114;5.718;2022-11-20T07:59:56;0.00;99.90
25504;DHT22;13410;52.114;5.718;2022-11-20T08:02:21;0.10;99.90
25504;DHT22;13410;52.114;5.718;2022-11-20T08:04:47;0.40;99.90
25504;DHT22;13410;52.114;5.718;2022-11-20T08:07:12;0.40;99.90
25504;DHT22;13410;52.114;5.718;2022-11-20T08:09:38;0.60;99.90
25504;DHT22;13410;52.114;5.718;2022-11-20T08:12:03;0.70;99.90
25504;DHT22;13410;52.114;5.718;2022-11-20T08:14:49;1.00;99.90
25504;DHT22;13410;52.114;5.718;2022-11-20T08:17:15;1.20;99.90
25504;DHT22;13410;52.114;5.718;2022-11-20T08:19:40;1.30;99.90
25504;DHT22;13410;52.114;5.718;2022-11-20T08:22:06;1.50;99.90
25504;DHT22;13410;52.114;5.718;2022-11-20T08:24:32;1.50;99.90
25504;DHT22;13410;52.114;5.718;2022-11-20T08:26:58;1.60;99.90
25504;DHT22;13410;52.114;5.718;2022-11-20T08:29:27;1.50;99.90
25504;DHT22;13410;52.114;5.718;2022-11-20T08:31:52;1.70;99.90
25504;DHT22;13410;52.114;5.718;2022-11-20T08:34:18;1.80;99.90
25504;DHT22;13410;52.114;5.718;2022-11-20T08:36:44;1.80;99.90
25504;DHT22;13410;52.114;5.718;2022-11-20T08:39:13;1.90;99.90
25504;DHT22;13410;52.114;5.718;2022-11-20T08:41:39;1.90;99.90
25504;DHT22;13410;52.114;5.718;2022-11-20T08:44:06;1.90;99.90
25504;DHT22;13410;52.114;5.718;2022-11-20T08:46:41;2.00;99.90
25504;DHT22;13410;52.114;5.718;2022-11-20T08:49:10;2.30;99.90
25504;DHT22;13410;52.114;5.718;2022-11-20T08:51:36;2.50;99.90
25504;DHT22;13410;52.114;5.718;2022-11-20T08:54:03;2.70;99.90
25504;DHT22;13410;52.114;5.718;2022-11-20T08:56:29;2.90;99.90
25504;DHT22;13410;52.114;5.718;2022-11-20T08:58:55;3.00;99.90
25504;DHT22;13410;52.114;5.718;2022-11-20T09:01:22;3.10;99.90
25504;DHT22;13410;52.114;5.718;2022-11-20T09:03:48;3.40;99.90
25504;DHT22;13410;52.114;5.718;2022-11-20T09:06:15;3.70;99.90
25504;DHT22;13410;52.114;5.718;2022-11-20T09:08:41;3.90;99.90
25504;DHT22;13410;52.114;5.718;2022-11-20T09:11:07;4.10;99.90
25504;DHT22;13410;52.114;5.718;2022-11-20T09:13:33;4.20;99.90
25504;DHT22;13410;52.114;5.718;2022-11-20T09:16:02;4.20;99.90
25504;DHT22;13410;52.114;5.718;2022-11-20T09:18:28;4.50;99.90
25504;DHT22;13410;52.114;5.718;2022-11-20T09:20:59;4.60;99.90
25504;DHT22;13410;52.114;5.718;2022-11-20T09:23:25;4.80;99.90
25504;DHT22;13410;52.114;5.718;2022-11-20T09:25:51;4.90;99.90
25504;DHT22;13410;52.114;5.718;2022-11-20T09:28:18;4.90;99.90
25504;DHT22;13410;52.114;5.718;2022-11-20T09:30:44;4.80;99.90
25504;DHT22;13410;52.114;5.718;2022-11-20T09:33:10;4.90;99.90
25504;DHT22;13410;52.114;5.718;2022-11-20T09:35:35;4.90;99.90
25504;DHT22;13410;52.114;5.718;2022-11-20T09:38:08;5.10;99.90
25504;DHT22;13410;52.114;5.718;2022-11-20T09:40:35;4.90;99.90
25504;DHT22;13410;52.114;5.718;2022-11-20T09:43:27;5.00;99.90
25504;DHT22;13410;52.114;5.718;2022-11-20T09:51:45;5.00;99.90
25504;DHT22;13410;52.114;5.718;2022-11-20T09:56:42;5.10;99.90
25504;DHT22;13410;52.114;5.718;2022-11-20T09:59:38;5.20;99.90
25504;DHT22;13410;52.114;5.718;2022-11-20T10:02:08;5.30;99.90
25504;DHT22;13410;52.114;5.718;2022-11-20T10:04:39;5.30;99.90
25504;DHT22;13410;52.114;5.718;2022-11-20T10:07:15;5.40;99.90
25504;DHT22;13410;52.114;5.718;2022-11-20T10:09:50;5.70;99.90
25504;DHT22;13410;52.114;5.718;2022-11-20T10:12:29;5.80;99.90
25504;DHT22;13410;52.114;5.718;2022-11-20T10:15:10;5.80;99.90
25504;DHT22;13410;52.114;5.718;2022-11-20T10:20:40;6.10;99.90
25504;DHT22;13410;52.114;5.718;2022-11-20T10:29:19;6.10;99.90
25504;DHT22;13410;52.114;5.718;2022-11-20T10:31:50;6.20;99.90
25504;DHT22;13410;52.114;5.718;2022-11-20T10:37:00;6.30;99.90
25504;DHT22;13410;52.114;5.718;2022-11-20T10:39:42;6.00;99.90
25504;DHT22;13410;52.114;5.718;2022-11-20T10:42:14;6.00;99.90
25504;DHT22;13410;52.114;5.718;2022-11-20T10:44:47;6.20;99.90
25504;DHT22;13410;52.114;5.718;2022-11-20T10:47:28;6.20;99.90
25504;DHT22;13410;52.114;5.718;2022-11-20T10:49:58;6.30;99.90
25504;DHT22;13410;52.114;5.718;2022-11-20T10:52:35;6.60;99.90
25504;DHT22;13410;52.114;5.718;2022-11-20T11:01:17;6.80;99.90
25504;DHT22;13410;52.114;5.718;2022-11-20T11:03:43;6.80;99.90
25504;DHT22;13410;52.114;5.718;2022-11-20T11:06:22;6.80;99.90
25504;DHT22;13410;52.114;5.718;2022-11-20T11:08:51;6.60;99.90
25504;DHT22;13410;52.114;5.718;2022-11-20T11:13:44;6.50;99.90
25504;DHT22;13410;52.114;5.718;2022-11-20T11:16:24;6.60;99.90
25504;DHT22;13410;52.114;5.718;2022-11-20T11:18:49;6.40;99.90
25504;DHT22;13410;52.114;5.718;2022-11-20T11:21:24;6.50;99.90
25504;DHT22;13410;52.114;5.718;2022-11-20T11:24:02;6.50;99.90
25504;DHT22;13410;52.114;5.718;2022-11-20T11:26:30;6.60;99.90
25504;DHT22;13410;52.114;5.718;2022-11-20T11:28:56;6.60;99.90
25504;DHT22;13410;52.114;5.718;2022-11-20T11:31:27;6.80;99.90
25504;DHT22;13410;52.114;5.718;2022-11-20T11:34:06;6.90;99.90
25504;DHT22;13410;52.114;5.718;2022-11-20T11:36:33;6.60;99.90
25504;DHT22;13410;52.114;5.718;2022-11-20T11:38:59;6.90;99.90
25504;DHT22;13410;52.114;5.718;2022-11-20T11:41:30;6.80;99.90
25504;DHT22;13410;52.114;5.718;2022-11-20T11:44:01;6.90;99.90
25504;DHT22;13410;52.114;5.718;2022-11-20T11:46:55;6.80;99.90
25504;DHT22;13410;52.114;5.718;2022-11-20T11:49:22;6.70;99.90
25504;DHT22;13410;52.114;5.718;2022-11-20T11:51:58;6.80;99.90
25504;DHT22;13410;52.114;5.718;2022-11-20T12:00:48;6.90;99.90
25504;DHT22;13410;52.114;5.718;2022-11-20T12:03:28;6.70;99.90
25504;DHT22;13410;52.114;5.718;2022-11-20T12:06:01;6.60;99.90
25504;DHT22;13410;52.114;5.718;2022-11-20T12:08:48;6.50;99.90
25504;DHT22;13410;52.114;5.718;2022-11-20T12:11:33;6.60;99.90
25504;DHT22;13410;52.114;5.718;2022-11-20T12:14:21;6.70;99.90
25504;DHT22;13410;52.114;5.718;2022-11-20T12:16:52;6.70;99.90
25504;DHT22;13410;52.114;5.718;2022-11-20T12:19:18;6.80;99.90
25504;DHT22;13410;52.114;5.718;2022-11-20T12:27:39;6.80;99.90
25504;DHT22;13410;52.114;5.718;2022-11-20T12:30:20;6.90;99.90
25504;DHT22;13410;52.114;5.718;2022-11-20T12:47:16;7.20;99.90
25504;DHT22;13410;52.114;5.718;2022-11-20T12:50:22;7.00;99.90
25504;DHT22;13410;52.114;5.718;2022-11-20T13:06:48;7.00;99.90
25504;DHT22;13410;52.114;5.718;2022-11-20T13:09:17;7.00;99.90
25504;DHT22;13410;52.114;5.718;2022-11-20T13:14:46;7.00;99.90
25504;DHT22;13410;52.114;5.718;2022-11-20T13:19:41;6.70;99.90
25504;DHT22;13410;52.114;5.718;2022-11-20T13:22:08;6.60;99.90
25504;DHT22;13410;52.114;5.718;2022-11-20T13:24:34;6.40;99.90
25504;DHT22;13410;52.114;5.718;2022-11-20T13:29:27;6.20;99.90
25504;DHT22;13410;52.114;5.718;2022-11-20T13:32:04;6.20;99.90
25504;DHT22;13410;52.114;5.718;2022-11-20T13:34:31;6.00;99.90
25504;DHT22;13410;52.114;5.718;2022-11-20T13:36:58;6.00;99.90
25504;DHT22;13410;52.114;5.718;2022-11-20T13:39:34;6.00;99.90
25504;DHT22;13410;52.114;5.718;2022-11-20T13:42:23;6.00;99.90
25504;DHT22;13410;52.114;5.718;2022-11-20T13:45:02;6.00;99.90
25504;DHT22;13410;52.114;5.718;2022-11-20T13:47:28;5.90;99.90
25504;DHT22;13410;52.114;5.718;2022-11-20T13:49:58;5.90;99.90
25504;DHT22;13410;52.114;5.718;2022-11-20T13:55:12;6.10;99.90
25504;DHT22;13410;52.114;5.718;2022-11-20T14:00:21;6.00;99.90
25504;DHT22;13410;52.114;5.718;2022-11-20T14:03:06;6.10;99.90
25504;DHT22;13410;52.114;5.718;2022-11-20T14:05:38;6.20;99.90
25504;DHT22;13410;52.114;5.718;2022-11-20T14:08:06;6.30;99.90
25504;DHT22;13410;52.114;5.718;2022-11-20T14:10:36;6.40;99.90
25504;DHT22;13410;52.114;5.718;2022-11-20T14:13:17;6.40;99.90
25504;DHT22;13410;52.114;5.718;2022-11-20T14:15:43;6.30;99.90
25504;DHT22;13410;52.114;5.718;2022-11-20T14:18:20;6.20;99.90
25504;DHT22;13410;52.114;5.718;2022-11-20T14:20:47;6.40;99.90
25504;DHT22;13410;52.114;5.718;2022-11-20T14:23:23;6.30;99.90
25504;DHT22;13410;52.114;5.718;2022-11-20T14:25:49;6.30;99.90
25504;DHT22;13410;52.114;5.718;2022-11-20T14:28:25;6.40;99.90
25504;DHT22;13410;52.114;5.718;2022-11-20T14:30:52;6.30;99.90
25504;DHT22;13410;52.114;5.718;2022-11-20T14:33:18;6.30;99.90
25504;DHT22;13410;52.114;5.718;2022-11-20T14:35:50;6.30;99.90
25504;DHT22;13410;52.114;5.718;2022-11-20T14:38:18;6.70;99.90
25504;DHT22;13410;52.114;5.718;2022-11-20T14:40:45;6.80;99.90
25504;DHT22;13410;52.114;5.718;2022-11-20T14:43:24;6.90;99.90
25504;DHT22;13410;52.114;5.718;2022-11-20T14:46:08;6.70;99.90
25504;DHT22;13410;52.114;5.718;2022-11-20T14:48:43;6.60;99.90
25504;DHT22;13410;52.114;5.718;2022-11-20T14:51:10;6.70;99.90
25504;DHT22;13410;52.114;5.718;2022-11-20T14:53:36;6.70;99.90
25504;DHT22;13410;52.114;5.718;2022-11-20T14:56:02;6.70;99.90
25504;DHT22;13410;52.114;5.718;2022-11-20T14:58:31;6.50;99.90
25504;DHT22;13410;52.114;5.718;2022-11-20T15:01:04;6.50;99.90
25504;DHT22;13410;52.114;5.718;2022-11-20T15:03:36;6.60;99.90
25504;DHT22;13410;52.114;5.718;2022-11-20T15:06:02;6.50;99.90
25504;DHT22;13410;52.114;5.718;2022-11-20T15:08:29;6.50;99.90
25504;DHT22;13410;52.114;5.718;2022-11-20T15:10:55;6.20;99.90
25504;DHT22;13410;52.114;5.718;2022-11-20T15:13:30;6.20;99.90
25504;DHT22;13410;52.114;5.718;2022-11-20T15:15:58;6.10;99.90
25504;DHT22;13410;52.114;5.718;2022-11-20T15:18:45;6.10;99.90
25504;DHT22;13410;52.114;5.718;2022-11-20T15:21:19;6.40;99.90
25504;DHT22;13410;52.114;5.718;2022-11-20T15:23:46;6.50;99.90
25504;DHT22;13410;52.114;5.718;2022-11-20T15:26:16;6.30;99.90
25504;DHT22;13410;52.114;5.718;2022-11-20T15:28:44;6.30;99.90
25504;DHT22;13410;52.114;5.718;2022-11-20T15:31:14;6.40;99.90
25504;DHT22;13410;52.114;5.718;2022-11-20T15:33:40;6.40;99.90
25504;DHT22;13410;52.114;5.718;2022-11-20T15:36:06;6.50;99.90
25504;DHT22;13410;52.114;5.718;2022-11-20T15:38:32;6.50;99.90
25504;DHT22;13410;52.114;5.718;2022-11-20T15:40:58;6.50;99.90
25504;DHT22;13410;52.114;5.718;2022-11-20T15:43:23;6.60;99.90
25504;DHT22;13410;52.114;5.718;2022-11-20T15:46:04;6.60;99.90
25504;DHT22;13410;52.114;5.718;2022-11-20T15:48:42;6.60;99.90
25504;DHT22;13410;52.114;5.718;2022-11-20T15:53:38;6.90;99.90
25504;DHT22;13410;52.114;5.718;2022-11-20T15:56:04;6.80;99.90
25504;DHT22;13410;52.114;5.718;2022-11-20T15:58:30;6.90;99.90
25504;DHT22;13410;52.114;5.718;2022-11-20T16:00:56;6.90;99.90
25504;DHT22;13410;52.114;5.718;2022-11-20T16:03:22;7.00;99.90
25504;DHT22;13410;52.114;5.718;2022-11-20T16:05:47;6.90;99.90
25504;DHT22;13410;52.114;5.718;2022-11-20T16:08:13;6.90;99.90
25504;DHT22;13410;52.114;5.718;2022-11-20T16:10:39;7.00;99.90
25504;DHT22;13410;52.114;5.718;2022-11-20T16:13:12;6.90;99.90
25504;DHT22;13410;52.114;5.718;2022-11-20T16:15:58;6.90;99.90
25504;DHT22;13410;52.114;5.718;2022-11-20T16:18:24;6.70;99.90
25504;DHT22;13410;52.114;5.718;2022-11-20T16:20:53;6.70;99.90
25504;DHT22;13410;52.114;5.718;2022-11-20T16:23:20;6.70;99.90
25504;DHT22;13410;52.114;5.718;2022-11-20T16:25:47;6.80;99.90
25504;DHT22;13410;52.114;5.718;2022-11-20T16:28:13;6.70;99.90
25504;DHT22;13410;52.114;5.718;2022-11-20T16:30:39;6.70;99.90
25504;DHT22;13410;52.114;5.718;2022-11-20T16:33:10;6.80;99.90
25504;DHT22;13410;52.114;5.718;2022-11-20T16:35:37;6.60;99.90
25504;DHT22;13410;52.114;5.718;2022-11-20T16:38:03;6.70;99.90
25504;DHT22;13410;52.114;5.718;2022-11-20T16:40:28;6.60;99.90
25504;DHT22;13410;52.114;5.718;2022-11-20T16:42:54;6.50;99.90
25504;DHT22;13410;52.114;5.718;2022-11-20T16:45:20;6.60;99.90
25504;DHT22;13410;52.114;5.718;2022-11-20T16:47:45;6.60;99.90
25504;DHT22;13410;52.114;5.718;2022-11-20T16:53:54;6.80;99.90
25504;DHT22;13410;52.114;5.718;2022-11-20T16:56:24;6.70;99.90
25504;DHT22;13410;52.114;5.718;2022-11-20T16:58:55;6.80;99.90
25504;DHT22;13410;52.114;5.718;2022-11-20T17:01:22;6.70;99.90
25504;DHT22;13410;52.114;5.718;2022-11-20T17:03:59;6.80;99.90
25504;DHT22;13410;52.114;5.718;2022-11-20T17:06:34;6.70;99.90
25504;DHT22;13410;52.114;5.718;2022-11-20T17:09:00;6.90;99.90
25504;DHT22;13410;52.114;5.718;2022-11-20T17:11:27;6.80;99.90
25504;DHT22;13410;52.114;5.718;2022-11-20T17:13:57;6.70;99.90
25504;DHT22;13410;52.114;5.718;2022-11-20T17:16:25;6.90;99.90
25504;DHT22;13410;52.114;5.718;2022-11-20T17:18:53;6.80;99.90
25504;DHT22;13410;52.114;5.718;2022-11-20T17:21:23;6.90;99.90
25504;DHT22;13410;52.114;5.718;2022-11-20T17:23:49;6.70;99.90
25504;DHT22;13410;52.114;5.718;2022-11-20T17:26:20;6.70;99.90
25504;DHT22;13410;52.114;5.718;2022-11-20T17:28:53;6.40;99.90
25504;DHT22;13410;52.114;5.718;2022-11-20T17:31:18;6.50;99.90
25504;DHT22;13410;52.114;5.718;2022-11-20T17:33:49;6.50;99.90